Aviation Digital Data Service (ADDS)

Output produced by METARs form (0354 UTC 20 November 2017)
found at http://aviationweather.gov/adds/metars/
 
KHKS 192320Z 2000/2024 34005KT P6SM SKC